Time;durP1;ratioP1;P1;durP2;ratioP2;P2;SDS_P1;SDS_P2;PMS_P1;PMS_P2;Temp;Humidity;BMP_temperature;BMP_pressure;BME280_temperature;BME280_humidity;BME280_pressure;Samples;Min_cycle;Max_cycle;Signal;HPM_P1;HPM_P2
2024/03/06 00:01:43;;;;;;;;;;;;;;;16.81;48.17;100644.44;5023589;28;1981;-57
2024/03/06 00:04:08;;;;;;;;;;;;;;;16.53;48.04;100650.25;5037194;28;1154;-57
2024/03/06 00:06:33;;;;;;;;;;;;;;;17.21;48.22;100637.22;5036567;28;1159;-57
2024/03/06 00:08:59;;;;;;;;;;;;;;;16.53;48.32;100644.75;5036534;28;1062;-57
2024/03/06 00:11:25;;;;;;;;;;;;;;;16.99;48.23;100637.56;5036760;28;1159;-56
2024/03/06 00:13:50;;;;;;;;;;;;;;;16.87;48.33;100637.81;5037184;28;1150;-57
2024/03/06 00:16:16;;;;;;;;;;;;;;;17.43;47.82;100631.31;5022171;28;1086;-57
2024/03/06 00:18:42;;;;;;;;;;;;;;;18.20;46.52;100635.50;5024465;28;1134;-57
2024/03/06 00:21:07;;;;;;;;;;;;;;;17.01;48.33;100638.94;5036402;28;1109;-54
2024/03/06 00:23:33;;;;;;;;;;;;;;;16.69;47.96;100631.84;5028560;28;1987;-55
2024/03/06 00:25:58;;;;;;;;;;;;;;;17.89;47.53;100636.56;5030983;28;1142;-56
2024/03/06 00:28:24;;;;;;;;;;;;;;;17.00;48.34;100630.94;5029056;28;1066;-56
2024/03/06 00:30:49;;;;;;;;;;;;;;;17.15;48.35;100630.88;5029480;28;1122;-57
2024/03/06 00:33:15;;;;;;;;;;;;;;;17.64;47.75;100632.00;5016722;28;1056;-57
2024/03/06 00:35:40;;;;;;;;;;;;;;;17.01;47.80;100627.94;5030015;28;1142;-57
2024/03/06 00:38:06;;;;;;;;;;;;;;;16.78;47.46;100634.84;5036353;28;1071;-57
2024/03/06 00:40:31;;;;;;;;;;;;;;;17.31;47.84;100625.34;5035830;28;1027;-57
2024/03/06 00:42:57;;;;;;;;;;;;;;;16.74;47.77;100631.81;5036272;28;1901;-56
2024/03/06 00:45:23;;;;;;;;;;;;;;;16.61;47.04;100632.41;5035183;28;1090;-56
2024/03/06 00:47:48;;;;;;;;;;;;;;;17.18;48.15;100637.75;5022204;28;873;-56
2024/03/06 00:50:16;;;;;;;;;;;;;;;16.61;48.02;100635.16;5030073;28;1119;-57
2024/03/06 00:52:42;;;;;;;;;;;;;;;16.46;47.18;100635.16;5028571;28;1055;-57
2024/03/06 00:55:08;;;;;;;;;;;;;;;16.60;47.81;100638.97;5017186;28;1059;-56
2024/03/06 00:57:33;;;;;;;;;;;;;;;16.69;47.94;100637.31;5038516;28;1070;-57
2024/03/06 00:59:59;;;;;;;;;;;;;;;16.37;47.47;100634.91;5039222;28;1170;-56
2024/03/06 01:02:25;;;;;;;;;;;;;;;17.22;47.55;100649.81;5040152;28;1898;-55
2024/03/06 01:04:50;;;;;;;;;;;;;;;16.71;47.94;100646.09;5040292;28;1055;-56
2024/03/06 01:07:16;;;;;;;;;;;;;;;16.42;47.42;100649.44;5031697;28;1181;-58
2024/03/06 01:09:41;;;;;;;;;;;;;;;17.22;47.50;100642.41;5034992;28;1080;-55
2024/03/06 01:12:07;;;;;;;;;;;;;;;16.64;47.92;100644.75;5039845;28;942;-55
2024/03/06 01:14:32;;;;;;;;;;;;;;;16.42;47.28;100643.13;5026327;28;1131;-54
2024/03/06 01:16:58;;;;;;;;;;;;;;;16.88;48.11;100644.97;5039936;28;1060;-55
2024/03/06 01:19:24;;;;;;;;;;;;;;;16.37;47.93;100643.13;5039898;28;1036;-57
2024/03/06 01:21:49;;;;;;;;;;;;;;;17.91;46.76;100645.38;5039614;28;1898;-55
2024/03/06 01:24:15;;;;;;;;;;;;;;;16.91;48.16;100644.44;5039540;28;906;-56
2024/03/06 01:26:40;;;;;;;;;;;;;;;16.85;48.65;100657.31;5033202;28;1047;-56
2024/03/06 01:29:06;;;;;;;;;;;;;;;17.54;47.63;100649.38;5032978;28;1229;-56
2024/03/06 01:31:31;;;;;;;;;;;;;;;16.79;48.24;100657.59;5019920;28;1111;-56
2024/03/06 01:33:57;;;;;;;;;;;;;;;16.86;48.27;100647.19;5033108;28;1048;-56
2024/03/06 01:36:22;;;;;;;;;;;;;;;17.13;48.07;100651.53;5035292;28;838;-55
2024/03/06 01:38:48;;;;;;;;;;;;;;;16.63;47.97;100654.88;5039257;28;1122;-55
2024/03/06 01:41:14;;;;;;;;;;;;;;;17.69;47.27;100658.69;5032701;28;1020;-56
2024/03/06 01:43:40;;;;;;;;;;;;;;;16.88;48.02;100655.94;5033230;28;1989;-53
2024/03/06 01:46:06;;;;;;;;;;;;;;;16.48;47.87;100663.16;5026396;28;1087;-56
2024/03/06 01:48:31;;;;;;;;;;;;;;;17.50;47.59;100655.75;5038747;28;1044;-55
2024/03/06 01:50:57;;;;;;;;;;;;;;;16.98;48.24;100666.94;5039555;28;1078;-56
2024/03/06 01:53:24;;;;;;;;;;;;;;;16.65;47.73;100669.19;5037535;28;1373;-55
2024/03/06 01:55:50;;;;;;;;;;;;;;;16.90;48.22;100671.09;5026019;28;1731;-55
2024/03/06 01:58:15;;;;;;;;;;;;;;;17.90;46.96;100670.38;5038766;28;1043;-54
2024/03/06 02:00:41;;;;;;;;;;;;;;;16.85;48.20;100670.25;5039040;28;1092;-55
2024/03/06 02:03:06;;;;;;;;;;;;;;;16.65;47.35;100680.16;5026938;28;1979;-56
2024/03/06 02:05:32;;;;;;;;;;;;;;;17.88;46.97;100683.56;5024643;28;1127;-56
2024/03/06 02:07:57;;;;;;;;;;;;;;;17.10;48.06;100681.19;5038992;28;1102;-56
2024/03/06 02:10:23;;;;;;;;;;;;;;;16.68;47.63;100678.78;5038797;28;1185;-56
2024/03/06 02:12:49;;;;;;;;;;;;;;;17.26;48.31;100679.22;5038044;28;1416;-57
2024/03/06 02:15:15;;;;;;;;;;;;;;;16.98;47.92;100677.91;5038770;28;1142;-57
2024/03/06 02:17:41;;;;;;;;;;;;;;;16.76;48.12;100680.97;5039106;28;1110;-56
2024/03/06 02:20:07;;;;;;;;;;;;;;;17.68;47.26;100685.34;5038896;28;1047;-57
2024/03/06 02:22:32;;;;;;;;;;;;;;;16.87;48.03;100690.00;5025986;28;1980;-57
2024/03/06 02:24:58;;;;;;;;;;;;;;;16.65;47.38;100684.81;5037819;28;1016;-57
2024/03/06 02:27:23;;;;;;;;;;;;;;;17.29;48.01;100691.56;5024475;28;1542;-56
2024/03/06 02:29:49;;;;;;;;;;;;;;;17.01;48.15;100685.63;5038069;28;1008;-56
2024/03/06 02:32:14;;;;;;;;;;;;;;;16.60;47.82;100697.44;5038492;28;1079;-56
2024/03/06 02:34:40;;;;;;;;;;;;;;;16.45;46.81;100693.88;5038398;28;1147;-57
2024/03/06 02:37:06;;;;;;;;;;;;;;;17.54;47.00;100690.63;5038181;28;885;-58
2024/03/06 02:39:31;;;;;;;;;;;;;;;16.72;48.01;100699.91;5038839;28;1139;-56
2024/03/06 02:41:57;;;;;;;;;;;;;;;16.49;47.86;100705.97;5038326;28;1909;-58
2024/03/06 02:44:22;;;;;;;;;;;;;;;17.31;47.70;100697.63;5031727;28;1162;-58
2024/03/06 02:46:50;;;;;;;;;;;;;;;16.62;47.88;100707.34;5031171;28;1131;-57
2024/03/06 02:49:16;;;;;;;;;;;;;;;16.49;47.27;100708.72;5037396;28;1063;-56
2024/03/06 02:51:42;;;;;;;;;;;;;;;17.25;47.49;100710.56;5035490;28;1560;-58
2024/03/06 02:54:08;;;;;;;;;;;;;;;16.58;47.80;100707.06;5026842;28;1362;-58
2024/03/06 02:56:33;;;;;;;;;;;;;;;16.29;47.52;100702.13;5037881;28;1138;-58
2024/03/06 02:59:02;;;;;;;;;;;;;;;17.65;46.86;100696.09;5038079;28;1123;-58
2024/03/06 03:01:28;;;;;;;;;;;;;;;16.63;48.20;100703.50;5037770;28;922;-58
2024/03/06 03:03:53;;;;;;;;;;;;;;;17.38;47.67;100698.13;5037444;28;1898;-58
2024/03/06 03:06:19;;;;;;;;;;;;;;;17.41;47.72;100711.31;5037748;28;1193;-58
2024/03/06 03:08:44;;;;;;;;;;;;;;;16.79;47.90;100707.88;5037760;28;1044;-57
2024/03/06 03:11:10;;;;;;;;;;;;;;;16.49;47.35;100708.72;5037564;28;1100;-57
2024/03/06 03:13:35;;;;;;;;;;;;;;;16.44;47.48;100706.81;5036113;28;1436;-56
2024/03/06 03:16:04;;;;;;;;;;;;;;;17.38;47.54;100703.63;5037435;28;976;-56
2024/03/06 03:18:29;;;;;;;;;;;;;;;16.65;48.19;100709.53;5037538;28;1055;-56
2024/03/06 03:20:55;;;;;;;;;;;;;;;17.61;47.38;100709.56;5036635;28;1122;-56
2024/03/06 03:23:21;;;;;;;;;;;;;;;17.09;47.81;100707.00;5037453;28;1942;-56
2024/03/06 03:25:48;;;;;;;;;;;;;;;16.64;47.93;100710.66;5029766;28;1008;-55
2024/03/06 03:28:14;;;;;;;;;;;;;;;16.44;47.19;100712.28;5037140;28;1067;-57
2024/03/06 03:30:39;;;;;;;;;;;;;;;17.03;47.66;100710.88;5037417;28;1213;-57
2024/03/06 03:33:05;;;;;;;;;;;;;;;16.99;47.93;100700.75;5037080;28;1055;-56
2024/03/06 03:35:31;;;;;;;;;;;;;;;16.54;47.76;100722.44;5025182;28;1223;-53
2024/03/06 03:37:57;;;;;;;;;;;;;;;16.33;46.97;100722.44;5034047;28;1267;-56
2024/03/06 03:40:23;;;;;;;;;;;;;;;17.26;47.31;100723.19;5037421;28;1179;-58
2024/03/06 03:42:48;;;;;;;;;;;;;;;16.83;48.15;100724.59;5031309;28;1898;-58
2024/03/06 03:45:14;;;;;;;;;;;;;;;16.47;47.73;100730.13;5030637;28;1325;-57
2024/03/06 03:47:42;;;;;;;;;;;;;;;17.22;47.49;100726.75;5035839;28;1131;-58
2024/03/06 03:50:08;;;;;;;;;;;;;;;16.91;48.26;100735.06;5027837;28;1528;-57
2024/03/06 03:52:34;;;;;;;;;;;;;;;18.45;45.84;100741.84;5023844;28;913;-56
2024/03/06 03:54:59;;;;;;;;;;;;;;;17.56;47.65;100742.63;5034126;28;1416;-58
2024/03/06 03:57:25;;;;;;;;;;;;;;;16.94;47.78;100748.25;5034060;28;1544;-57
2024/03/06 03:59:51;;;;;;;;;;;;;;;16.67;47.27;100752.06;5035772;28;1195;-56
2024/03/06 04:02:16;;;;;;;;;;;;;;;16.48;46.62;100748.22;5029790;28;1894;-58
2024/03/06 04:04:42;;;;;;;;;;;;;;;17.33;47.38;100749.56;5017888;28;1071;-58
2024/03/06 04:07:08;;;;;;;;;;;;;;;16.67;47.88;100759.50;5029437;28;1110;-58
2024/03/06 04:09:36;;;;;;;;;;;;;;;16.51;47.03;100762.25;5036457;28;1114;-58
2024/03/06 04:12:02;;;;;;;;;;;;;;;16.81;47.28;100765.28;5036560;28;1147;-56
2024/03/06 04:14:28;;;;;;;;;;;;;;;16.76;47.68;100760.63;5030195;28;1110;-54
2024/03/06 04:16:53;;;;;;;;;;;;;;;17.65;47.22;100757.41;5036093;28;977;-58
2024/03/06 04:19:19;;;;;;;;;;;;;;;18.36;45.94;100766.41;5036531;28;1107;-58
2024/03/06 04:21:44;;;;;;;;;;;;;;;17.17;47.91;100768.81;5035998;28;1902;-58
2024/03/06 04:24:10;;;;;;;;;;;;;;;16.77;47.40;100781.47;5035625;28;1127;-56
2024/03/06 04:26:35;;;;;;;;;;;;;;;16.53;47.09;100775.69;5031961;28;1325;-57
2024/03/06 04:29:02;;;;;;;;;;;;;;;17.63;47.43;100773.38;5030505;28;2545;-56
2024/03/06 04:31:28;;;;;;;;;;;;;;;16.88;48.05;100774.06;5036368;28;1519;-55
2024/03/06 04:33:53;;;;;;;;;;;;;;;16.83;47.84;100794.09;5036080;28;1110;-57
2024/03/06 04:36:19;;;;;;;;;;;;;;;17.50;47.41;100795.94;5035477;28;1344;-57
2024/03/06 04:38:44;;;;;;;;;;;;;;;16.77;48.19;100793.28;5035483;28;1234;-57
2024/03/06 04:41:10;;;;;;;;;;;;;;;16.53;47.28;100792.16;5033112;28;1283;-55
2024/03/06 04:43:36;;;;;;;;;;;;;;;16.37;46.53;100805.06;5019040;28;1910;-55
2024/03/06 04:46:01;;;;;;;;;;;;;;;17.69;47.33;100797.00;5031009;28;1238;-58
2024/03/06 04:48:27;;;;;;;;;;;;;;;16.78;48.40;100818.81;5035785;28;1166;-56
2024/03/06 04:50:52;;;;;;;;;;;;;;;16.55;47.38;100815.50;5035835;28;1020;-58
2024/03/06 04:53:20;;;;;;;;;;;;;;;17.98;46.39;100810.13;5035263;28;1189;-56
2024/03/06 04:55:45;;;;;;;;;;;;;;;16.90;47.94;100818.56;5035419;28;1069;-59
2024/03/06 04:58:11;;;;;;;;;;;;;;;16.60;47.21;100817.41;5034909;28;2388;-59
2024/03/06 05:00:37;;;;;;;;;;;;;;;17.70;47.25;100823.41;5035216;28;1000;-59
2024/03/06 05:03:02;;;;;;;;;;;;;;;16.75;48.25;100820.19;5022489;28;1910;-59
2024/03/06 05:05:28;;;;;;;;;;;;;;;16.48;47.60;100825.94;5035688;28;1055;-59
2024/03/06 05:07:53;;;;;;;;;;;;;;;17.65;47.28;100819.84;5035732;28;1099;-60
2024/03/06 05:10:19;;;;;;;;;;;;;;;17.02;47.97;100827.34;5035772;28;1079;-58
2024/03/06 05:12:44;;;;;;;;;;;;;;;17.82;46.54;100827.75;5035345;28;1146;-56
2024/03/06 05:15:10;;;;;;;;;;;;;;;17.27;47.58;100828.44;5025963;28;1174;-56
2024/03/06 05:17:35;;;;;;;;;;;;;;;16.90;48.32;100835.88;5027315;28;1039;-56
2024/03/06 05:20:01;;;;;;;;;;;;;;;16.69;48.80;100842.41;5030017;28;1099;-56
2024/03/06 05:22:26;;;;;;;;;;;;;;;16.48;49.18;100841.56;5035438;28;1906;-58
2024/03/06 05:24:52;;;;;;;;;;;;;;;16.20;49.54;100833.53;5035039;28;1020;-58
2024/03/06 05:27:18;;;;;;;;;;;;;;;16.11;49.92;100840.63;5035812;28;1048;-57
2024/03/06 05:29:44;;;;;;;;;;;;;;;15.95;50.11;100853.47;5035335;28;2371;-57
2024/03/06 05:32:09;;;;;;;;;;;;;;;15.82;50.38;100849.31;5035915;28;1024;-56
2024/03/06 05:34:35;;;;;;;;;;;;;;;15.72;50.62;100851.94;5035483;28;1004;-54
2024/03/06 05:37:01;;;;;;;;;;;;;;;15.69;50.57;100856.03;5033289;28;1103;-55
2024/03/06 05:39:27;;;;;;;;;;;;;;;15.52;51.09;100860.88;5022153;28;1091;-54
2024/03/06 05:41:54;;;;;;;;;;;;;;;15.38;51.34;100866.81;5028216;28;1906;-56
2024/03/06 05:44:20;;;;;;;;;;;;;;;16.19;49.54;100870.28;5020103;28;1170;-56
2024/03/06 05:46:46;;;;;;;;;;;;;;;17.44;46.52;100861.94;5037820;28;911;-55
2024/03/06 05:49:12;;;;;;;;;;;;;;;16.54;48.41;100865.19;5035278;28;904;-54
2024/03/06 05:51:38;;;;;;;;;;;;;;;16.12;49.62;100874.34;5038419;28;1231;-55
2024/03/06 05:54:05;;;;;;;;;;;;;;;15.84;50.25;100876.44;5038806;28;1016;-56
2024/03/06 05:56:31;;;;;;;;;;;;;;;15.64;50.37;100875.22;5038239;28;1129;-54
2024/03/06 05:58:57;;;;;;;;;;;;;;;15.38;51.03;100877.75;5032205;28;2186;-58
2024/03/06 06:01:22;;;;;;;;;;;;;;;16.55;48.55;100872.31;5035995;28;1048;-55
2024/03/06 06:03:48;;;;;;;;;;;;;;;17.65;45.87;100877.59;5038453;28;1993;-57
2024/03/06 06:06:17;;;;;;;;;;;;;;;16.68;47.94;100876.47;5035579;28;1102;-57
2024/03/06 06:08:44;;;;;;;;;;;;;;;16.22;49.00;100885.41;5038695;28;1027;-56
2024/03/06 06:11:09;;;;;;;;;;;;;;;15.86;49.93;100874.25;5027588;28;1043;-56
2024/03/06 06:13:35;;;;;;;;;;;;;;;15.60;50.48;100868.59;5034926;28;1178;-57
2024/03/06 06:16:03;;;;;;;;;;;;;;;15.53;50.49;100873.50;5038730;28;992;-56
2024/03/06 06:18:29;;;;;;;;;;;;;;;15.89;50.05;100870.97;5038162;28;1035;-56
2024/03/06 06:20:54;;;;;;;;;;;;;;;17.35;46.56;100869.09;5038124;28;1122;-57
2024/03/06 06:23:20;;;;;;;;;;;;;;;17.21;46.23;100857.03;5038096;28;1984;-57
2024/03/06 06:25:45;;;;;;;;;;;;;;;16.39;48.64;100879.69;5037585;28;1011;-57
2024/03/06 06:28:11;;;;;;;;;;;;;;;16.10;49.25;100884.78;5033510;28;2697;-57
2024/03/06 06:30:38;;;;;;;;;;;;;;;15.78;49.99;100880.22;5033201;28;1039;-55
2024/03/06 06:33:04;;;;;;;;;;;;;;;15.63;50.51;100884.50;5038305;28;1099;-55
2024/03/06 06:35:30;;;;;;;;;;;;;;;17.13;47.00;100888.63;5038165;28;1078;-57
2024/03/06 06:37:55;;;;;;;;;;;;;;;17.18;46.32;100885.03;5037690;28;1163;-56
2024/03/06 06:40:21;;;;;;;;;;;;;;;16.36;48.62;100886.53;5037523;28;1044;-54
2024/03/06 06:42:49;;;;;;;;;;;;;;;16.08;49.12;100888.63;5031991;28;1902;-56
2024/03/06 06:45:18;;;;;;;;;;;;;;;15.84;49.68;100898.38;5030719;28;1099;-58
2024/03/06 06:47:44;;;;;;;;;;;;;;;15.75;49.85;100892.53;5038182;28;1007;-57
2024/03/06 06:50:11;;;;;;;;;;;;;;;16.55;48.00;100892.38;5034900;28;1055;-55
2024/03/06 06:52:39;;;;;;;;;;;;;;;17.63;45.28;100891.63;5036990;28;1167;-55
2024/03/06 06:55:05;;;;;;;;;;;;;;;16.58;47.80;100886.31;5036370;28;1144;-55
2024/03/06 06:57:31;;;;;;;;;;;;;;;16.22;48.97;100879.91;5037834;28;1015;-53
2024/03/06 06:59:57;;;;;;;;;;;;;;;15.91;49.56;100893.47;5035640;28;2637;-56
2024/03/06 07:02:22;;;;;;;;;;;;;;;15.70;50.21;100896.06;5036168;28;1902;-57
2024/03/06 07:04:48;;;;;;;;;;;;;;;15.96;49.55;100898.97;5037718;28;1036;-55
2024/03/06 07:07:14;;;;;;;;;;;;;;;17.43;45.87;100901.53;5036837;28;1143;-54
2024/03/06 07:09:39;;;;;;;;;;;;;;;16.82;47.01;100899.56;5034457;28;1262;-54
2024/03/06 07:12:05;;;;;;;;;;;;;;;16.30;48.42;100915.06;5037611;28;1179;-59
2024/03/06 07:14:31;;;;;;;;;;;;;;;15.88;49.79;100913.22;5037265;28;985;-58
2024/03/06 07:16:56;;;;;;;;;;;;;;;15.80;49.75;100910.97;5024332;28;1067;-56
2024/03/06 07:19:22;;;;;;;;;;;;;;;15.60;50.13;100906.97;5024407;28;1060;-58
2024/03/06 07:21:47;;;;;;;;;;;;;;;16.81;47.69;100908.06;5037599;28;1910;-58
2024/03/06 07:24:13;;;;;;;;;;;;;;;17.86;45.13;100911.38;5023356;28;983;-58
2024/03/06 07:26:38;;;;;;;;;;;;;;;16.93;46.79;100917.72;5029995;28;1055;-58
2024/03/06 07:29:04;;;;;;;;;;;;;;;16.36;48.41;100907.69;5017333;28;1114;-56
2024/03/06 07:31:31;;;;;;;;;;;;;;;16.08;49.00;100907.81;5037299;28;1080;-59
2024/03/06 07:33:57;;;;;;;;;;;;;;;15.84;49.81;100901.94;5036965;28;1015;-58
2024/03/06 07:36:23;;;;;;;;;;;;;;;15.66;50.27;100911.41;5036916;28;973;-57
2024/03/06 07:38:48;;;;;;;;;;;;;;;15.69;50.24;100921.00;5036858;28;1151;-57
2024/03/06 07:41:13;;;;;;;;;;;;;;;17.27;46.53;100916.38;5024279;28;1052;-56
2024/03/06 07:43:39;;;;;;;;;;;;;;;17.20;46.24;100915.84;5036573;28;1977;-57
2024/03/06 07:46:10;;;;;;;;;;;;;;;16.40;48.46;100917.84;5037138;28;1138;-57
2024/03/06 07:48:38;;;;;;;;;;;;;;;16.12;49.11;100913.59;5036808;28;1000;-57
2024/03/06 07:51:04;;;;;;;;;;;;;;;15.87;49.57;100914.31;5035629;28;1267;-56
2024/03/06 07:53:30;;;;;;;;;;;;;;;15.67;50.29;100906.72;5022337;28;1123;-52
2024/03/06 07:55:55;;;;;;;;;;;;;;;16.26;48.87;100911.19;5024781;28;1187;-59
2024/03/06 07:58:21;;;;;;;;;;;;;;;17.52;45.83;100906.50;5035762;28;1032;-59
2024/03/06 08:00:46;;;;;;;;;;;;;;;16.82;47.38;100909.72;5035653;28;1118;-57
2024/03/06 08:03:13;;;;;;;;;;;;;;;16.31;48.63;100910.38;5033726;28;1910;-58
2024/03/06 08:05:39;;;;;;;;;;;;;;;15.89;49.75;100918.44;5023454;28;1036;-57
2024/03/06 08:08:04;;;;;;;;;;;;;;;15.76;50.14;100921.59;5035780;28;1044;-57
2024/03/06 08:10:31;;;;;;;;;;;;;;;15.56;50.62;100922.28;5035612;28;1149;-57
2024/03/06 08:12:57;;;;;;;;;;;;;;;16.97;46.99;100922.66;5022492;28;1197;-56
2024/03/06 08:15:23;;;;;;;;;;;;;;;17.42;45.67;100932.06;5035173;28;1032;-57
2024/03/06 08:17:49;;;;;;;;;;;;;;;16.49;48.26;100926.38;5035720;28;1067;-56
2024/03/06 08:20:14;;;;;;;;;;;;;;;16.11;49.29;100930.34;5035923;28;1118;-54
2024/03/06 08:22:40;;;;;;;;;;;;;;;15.87;49.93;100919.78;5035520;28;2369;-56
2024/03/06 08:25:09;;;;;;;;;;;;;;;15.74;49.97;100930.09;5027950;28;1186;-54
2024/03/06 08:27:35;;;;;;;;;;;;;;;15.54;50.46;100935.41;5031026;28;892;-54
2024/03/06 08:30:01;;;;;;;;;;;;;;;17.08;46.85;100927.06;5036166;28;1074;-58
2024/03/06 08:32:27;;;;;;;;;;;;;;;17.45;45.69;100926.81;5034395;28;1135;-60
2024/03/06 08:34:53;;;;;;;;;;;;;;;16.55;47.97;100927.22;5023459;28;1154;-60
2024/03/06 08:37:19;;;;;;;;;;;;;;;16.08;49.19;100924.28;5020919;28;991;-60
2024/03/06 08:39:45;;;;;;;;;;;;;;;15.83;49.68;100919.47;5031168;28;852;-59
2024/03/06 08:42:12;;;;;;;;;;;;;;;15.69;50.31;100919.09;5033631;28;1981;-56
2024/03/06 08:44:37;;;;;;;;;;;;;;;16.36;48.80;100932.38;5015174;28;1051;-57
2024/03/06 08:47:03;;;;;;;;;;;;;;;17.61;45.47;100927.66;5017192;28;1083;-58
2024/03/06 08:49:28;;;;;;;;;;;;;;;16.81;47.32;100924.53;5035269;28;1114;-59
2024/03/06 08:51:54;;;;;;;;;;;;;;;16.25;48.87;100931.50;5034685;28;991;-60
2024/03/06 08:54:20;;;;;;;;;;;;;;;15.93;49.47;100926.94;5035418;28;1115;-61
2024/03/06 08:56:46;;;;;;;;;;;;;;;15.72;49.98;100925.97;4990798;28;1275813;-59
2024/03/06 08:59:11;;;;;;;;;;;;;;;15.59;50.32;100919.03;5036263;28;1058;-56
2024/03/06 09:01:37;;;;;;;;;;;;;;;15.69;50.33;100931.97;5035503;28;1125;-59
2024/03/06 09:04:02;;;;;;;;;;;;;;;17.22;46.65;100927.38;5035473;28;1906;-60
2024/03/06 09:06:28;;;;;;;;;;;;;;;17.34;45.98;100933.41;5034567;28;1204;-61
2024/03/06 09:08:53;;;;;;;;;;;;;;;16.40;48.50;100931.56;5023287;28;988;-60
2024/03/06 09:11:19;;;;;;;;;;;;;;;16.00;49.32;100927.53;5036126;28;1179;-60
2024/03/06 09:13:44;;;;;;;;;;;;;;;15.74;50.21;100935.56;5035679;28;1071;-56
2024/03/06 09:16:10;;;;;;;;;;;;;;;15.64;50.38;100929.19;5035199;28;1155;-57
2024/03/06 09:18:35;;;;;;;;;;;;;;;15.44;50.66;100929.88;5037741;28;1167;-57
2024/03/06 09:21:02;;;;;;;;;;;;;;;16.62;47.89;100933.28;5039781;28;1453;-58
2024/03/06 09:23:29;;;;;;;;;;;;;;;17.69;45.57;100931.75;5040164;28;1967;-59
2024/03/06 09:25:55;;;;;;;;;;;;;;;16.65;47.49;100935.50;5039069;28;1055;-59
2024/03/06 09:28:20;;;;;;;;;;;;;;;16.15;48.97;100934.19;5039168;28;902;-62
2024/03/06 09:30:46;;;;;;;;;;;;;;;15.90;49.72;100932.97;5038469;28;1119;-60
2024/03/06 09:33:11;;;;;;;;;;;;;;;15.69;50.24;100927.31;5038732;28;1095;-59
2024/03/06 09:35:37;;;;;;;;;;;;;;;15.61;50.52;100936.03;5039404;28;1122;-58
2024/03/06 09:38:03;;;;;;;;;;;;;;;16.29;48.85;100927.13;5038894;28;1107;-54
2024/03/06 09:40:29;;;;;;;;;;;;;;;17.54;45.67;100921.59;5037769;28;893;-58
2024/03/06 09:42:54;;;;;;;;;;;;;;;16.89;47.07;100922.13;5039258;28;1982;-58
2024/03/06 09:45:20;;;;;;;;;;;;;;;16.24;48.76;100929.84;5038910;28;1147;-60
2024/03/06 09:47:45;;;;;;;;;;;;;;;15.95;49.53;100930.25;5063109;28;1027;-59
2024/03/06 09:50:11;;;;;;;;;;;;;;;15.79;49.86;100926.56;5032169;28;1215;-60
2024/03/06 09:52:36;;;;;;;;;;;;;;;15.57;50.39;100924.78;5038533;28;956;-58
2024/03/06 09:55:03;;;;;;;;;;;;;;;16.51;48.25;100920.59;5025472;28;1072;-58
2024/03/06 09:57:29;;;;;;;;;;;;;;;17.67;45.34;100920.22;5038312;28;1289;-58
2024/03/06 09:59:55;;;;;;;;;;;;;;;16.74;47.29;100917.38;5037627;28;1060;-59
2024/03/06 10:02:26;;;;;;;;;;;;;;;16.19;48.79;100927.91;5038438;28;1958;-59
2024/03/06 10:04:52;;;;;;;;;;;;;;;15.91;49.46;100929.94;5029385;28;1107;-58
2024/03/06 10:07:17;;;;;;;;;;;;;;;15.71;49.96;100916.06;5038457;28;1110;-63
2024/03/06 10:09:44;;;;;;;;;;;;;;;15.64;50.45;100930.03;5033093;28;1357;-62
2024/03/06 10:12:11;;;;;;;;;;;;;;;17.12;46.92;100930.13;5032372;28;1227;-62
2024/03/06 10:14:37;;;;;;;;;;;;;;;17.47;45.52;100925.72;5035168;28;1497;-60
2024/03/06 10:17:03;;;;;;;;;;;;;;;16.46;48.07;100928.84;5038432;28;1381;-59
2024/03/06 10:19:28;;;;;;;;;;;;;;;16.13;49.24;100923.50;5033188;28;1245;-59
2024/03/06 10:21:54;;;;;;;;;;;;;;;15.94;49.45;100920.38;5031251;28;1985;-60
2024/03/06 10:24:20;;;;;;;;;;;;;;;15.69;50.33;100927.31;5033987;28;1189;-60
2024/03/06 10:26:46;;;;;;;;;;;;;;;15.53;50.54;100925.56;5031705;28;1423;-59
2024/03/06 10:29:14;;;;;;;;;;;;;;;16.87;47.37;100920.69;5037390;28;1154;-60
2024/03/06 10:31:40;;;;;;;;;;;;;;;17.74;45.06;100926.25;5034247;28;1407;-57
2024/03/06 10:34:06;;;;;;;;;;;;;;;16.63;47.88;100921.19;5035158;28;1086;-57
2024/03/06 10:36:32;;;;;;;;;;;;;;;16.27;48.92;100920.25;5033612;28;1446;-58
2024/03/06 10:38:57;;;;;;;;;;;;;;;15.91;49.71;100915.44;5030262;28;1469;-61
2024/03/06 10:41:24;;;;;;;;;;;;;;;15.73;50.23;100916.66;5036640;28;1458;-59
2024/03/06 10:43:50;;;;;;;;;;;;;;;15.62;50.24;100910.25;5037760;28;1981;-59
2024/03/06 10:46:15;;;;;;;;;;;;;;;16.62;48.16;100916.81;5037945;28;1024;-59
2024/03/06 10:48:41;;;;;;;;;;;;;;;17.74;45.38;100914.41;5062288;28;1146;-60
2024/03/06 10:51:07;;;;;;;;;;;;;;;16.86;47.19;100916.34;5030057;28;1159;-59
2024/03/06 10:53:32;;;;;;;;;;;;;;;16.24;48.87;100906.00;5027780;28;1074;-59
2024/03/06 10:55:58;;;;;;;;;;;;;;;15.95;49.68;100907.47;5037654;28;1114;-61
2024/03/06 10:58:23;;;;;;;;;;;;;;;15.79;50.12;100903.78;5028792;28;1024;-59
2024/03/06 11:00:49;;;;;;;;;;;;;;;15.65;50.42;100901.50;5051009;28;1138;-58
2024/03/06 11:03:14;;;;;;;;;;;;;;;15.52;50.59;100905.53;5036112;28;1905;-60
2024/03/06 11:05:40;;;;;;;;;;;;;;;16.81;47.61;100908.06;5037521;28;1103;-60
2024/03/06 11:08:09;;;;;;;;;;;;;;;17.61;45.52;100900.16;5037478;28;1329;-62
2024/03/06 11:10:35;;;;;;;;;;;;;;;16.57;47.81;100898.41;5027721;28;1313;-61
2024/03/06 11:13:05;;;;;;;;;;;;;;;16.11;49.07;100908.41;5030219;28;1308;-60
2024/03/06 11:15:30;;;;;;;;;;;;;;;15.89;49.70;100898.38;5037685;28;1094;-60
2024/03/06 11:17:56;;;;;;;;;;;;;;;15.64;50.43;100899.88;5037507;28;1087;-60
2024/03/06 11:20:25;;;;;;;;;;;;;;;15.55;50.37;100904.19;5036831;28;1027;-59
2024/03/06 11:25:41;;;;;;;;;;;;;;;17.28;45.92;100907.06;5024094;28;1062;-60
2024/03/06 11:28:06;;;;;;;;;;;;;;;16.39;48.17;100905.19;5030909;28;1051;-60
2024/03/06 11:30:32;;;;;;;;;;;;;;;15.99;49.21;100903.09;5068733;28;1412;-59
2024/03/06 11:33:04;;;;;;;;;;;;;;;15.76;49.86;100898.84;5024004;28;1126;-59
2024/03/06 11:35:30;;;;;;;;;;;;;;;15.62;50.36;100910.25;5037321;28;1047;-60
2024/03/06 11:37:55;;;;;;;;;;;;;;;15.56;50.64;100900.38;5032764;28;1103;-59
2024/03/06 11:40:24;;;;;;;;;;;;;;;17.05;46.94;100903.72;5025516;28;1067;-60
2024/03/06 11:42:49;;;;;;;;;;;;;;;17.50;45.63;100908.66;5032142;28;1972;-60
2024/03/06 11:45:22;;;;;;;;;;;;;;;16.43;48.17;100911.81;5028365;28;1171;-54
2024/03/06 11:47:56;;;;;;;;;;;;;;;16.01;49.37;100909.97;5037024;28;1076;-54
2024/03/06 11:50:22;;;;;;;;;;;;;;;15.77;50.01;100900.47;5023601;28;1202;-55
2024/03/06 11:52:47;;;;;;;;;;;;;;;15.65;50.36;100898.75;5036231;28;907;-55
2024/03/06 11:55:13;;;;;;;;;;;;;;;16.15;49.37;100910.31;5036710;28;1092;-55
2024/03/06 11:57:39;;;;;;;;;;;;;;;17.50;45.87;100903.16;5036343;28;1159;-55
2024/03/06 12:00:06;;;;;;;;;;;;;;;16.89;47.02;100904.81;5036641;28;1171;-56
2024/03/06 12:02:32;;;;;;;;;;;;;;;16.23;49.06;100903.50;5023230;28;1902;-56
2024/03/06 12:05:02;;;;;;;;;;;;;;;16.03;49.34;100899.59;5036507;28;1071;-57
2024/03/06 12:07:27;;;;;;;;;;;;;;;15.74;50.24;100902.69;5035390;28;1103;-56
2024/03/06 12:09:53;;;;;;;;;;;;;;;15.61;50.37;100899.56;5036817;28;1079;-57
2024/03/06 12:12:18;;;;;;;;;;;;;;;15.94;49.93;100903.09;5036577;28;1139;-56
2024/03/06 12:14:44;;;;;;;;;;;;;;;17.37;46.22;100896.31;5036581;28;1167;-55
2024/03/06 12:17:14;;;;;;;;;;;;;;;16.80;47.30;100898.19;5034660;28;1207;-55
2024/03/06 12:19:39;;;;;;;;;;;;;;;16.15;49.07;100901.28;5036321;28;1171;-53
2024/03/06 12:22:06;;;;;;;;;;;;;;;15.82;49.83;100900.56;5034581;28;1910;-56
2024/03/06 12:24:32;;;;;;;;;;;;;;;15.67;50.34;100902.09;5035674;28;1356;-52
2024/03/06 12:26:59;;;;;;;;;;;;;;;15.54;50.58;100905.28;5036012;28;1044;-56
2024/03/06 12:29:27;;;;;;;;;;;;;;;17.02;47.35;100907.03;5035764;28;910;-57
2024/03/06 12:31:53;;;;;;;;;;;;;;;17.14;46.70;100895.78;5034691;28;1179;-56
2024/03/06 12:34:18;;;;;;;;;;;;;;;16.30;48.87;100900.50;5035904;28;1067;-56
2024/03/06 12:36:44;;;;;;;;;;;;;;;15.99;49.71;100903.94;5035938;28;1142;-55
2024/03/06 12:39:18;;;;;;;;;;;;;;;15.74;50.28;100897.19;5036326;28;1118;-56
2024/03/06 12:41:43;;;;;;;;;;;;;;;15.61;50.48;100902.31;5036074;28;906;-57
2024/03/06 12:44:09;;;;;;;;;;;;;;;15.85;50.02;100908.25;5031120;28;1988;-56